createdAt,value
2023-03-18T00:01:55.823Z,4.63
2023-03-18T00:04:22.481Z,4.00
2023-03-18T00:06:49.214Z,4.05
2023-03-18T00:09:17.670Z,4.25
2023-03-18T00:11:46.171Z,3.85
2023-03-18T00:14:13.107Z,3.85
2023-03-18T00:16:40.087Z,4.03
2023-03-18T00:19:07.389Z,3.58
2023-03-18T00:21:34.435Z,3.67
2023-03-18T00:24:01.385Z,3.67
2023-03-18T00:26:29.108Z,3.03
2023-03-18T00:28:57.512Z,3.17
2023-03-18T00:31:25.870Z,3.15
2023-03-18T00:33:52.736Z,3.00
2023-03-18T00:36:25.446Z,3.30
2023-03-18T00:38:59.799Z,3.20
2023-03-18T00:41:30.419Z,3.30
2023-03-18T00:43:57.394Z,3.22
2023-03-18T00:46:27.601Z,3.65
2023-03-18T00:48:56.856Z,3.63
2023-03-18T00:51:26.245Z,3.38
2023-03-18T00:53:55.381Z,3.55
2023-03-18T00:56:25.849Z,3.60
2023-03-18T00:58:53.917Z,3.53
2023-03-18T01:01:21.826Z,3.85
2023-03-18T01:03:52.085Z,3.72
2023-03-18T01:06:25.650Z,3.55
2023-03-18T01:08:52.444Z,3.97
2023-03-18T01:11:19.551Z,4.20
2023-03-18T01:13:46.540Z,3.97
2023-03-18T01:16:14.429Z,4.13
2023-03-18T01:18:41.543Z,4.35
2023-03-18T01:21:10.249Z,4.75
2023-03-18T01:23:38.397Z,4.60
2023-03-18T01:26:06.386Z,4.43
2023-03-18T01:28:33.277Z,4.60
2023-03-18T01:31:00.514Z,4.82
2023-03-18T01:33:28.812Z,4.57
2023-03-18T01:36:00.781Z,3.92
2023-03-18T01:38:31.257Z,4.05
2023-03-18T01:41:00.340Z,4.60
2023-03-18T01:43:34.166Z,4.38
2023-03-18T01:46:03.052Z,4.03
2023-03-18T01:48:33.220Z,4.38
2023-03-18T01:51:04.602Z,4.18
2023-03-18T01:53:38.135Z,4.13
2023-03-18T01:56:06.178Z,4.20
2023-03-18T01:58:38.565Z,4.35
2023-03-18T02:01:12.334Z,4.45
2023-03-18T02:03:41.793Z,4.75
2023-03-18T02:06:10.159Z,4.10
2023-03-18T02:08:39.635Z,4.35
2023-03-18T02:11:08.665Z,4.03
2023-03-18T02:13:38.807Z,4.28
2023-03-18T02:16:28.369Z,4.45
2023-03-18T02:19:00.796Z,3.67
2023-03-18T02:21:40.873Z,4.35
2023-03-18T02:24:31.665Z,4.55
2023-03-18T02:27:05.699Z,4.70
2023-03-18T02:29:35.674Z,3.78
2023-03-18T02:32:06.128Z,3.88
2023-03-18T02:34:34.409Z,4.10
2023-03-18T02:37:01.476Z,4.72
2023-03-18T02:39:30.780Z,4.15
2023-03-18T02:41:57.919Z,4.57
2023-03-18T02:44:28.117Z,4.20
2023-03-18T02:46:59.452Z,4.47
2023-03-18T02:49:27.978Z,4.63
2023-03-18T02:51:55.521Z,4.05
2023-03-18T02:54:26.583Z,4.43
2023-03-18T02:56:54.090Z,4.25
2023-03-18T02:59:21.451Z,4.03
2023-03-18T03:01:51.865Z,4.57
2023-03-18T03:04:21.227Z,4.53
2023-03-18T03:06:48.152Z,4.07
2023-03-18T03:09:16.498Z,4.05
2023-03-18T03:11:47.917Z,4.05
2023-03-18T03:14:16.417Z,4.43
2023-03-18T03:16:43.879Z,4.32
2023-03-18T03:19:14.269Z,4.78
2023-03-18T03:21:42.852Z,4.68
2023-03-18T03:24:09.956Z,3.85
2023-03-18T03:26:36.971Z,4.13
2023-03-18T03:29:06.818Z,4.35
2023-03-18T03:31:34.397Z,4.60
2023-03-18T03:34:01.124Z,4.30
2023-03-18T03:36:28.047Z,4.13
2023-03-18T03:38:55.707Z,4.38
2023-03-18T03:41:22.674Z,4.45
2023-03-18T03:43:49.751Z,4.82
2023-03-18T03:46:24.247Z,4.78
2023-03-18T03:48:51.106Z,4.40
2023-03-18T03:51:20.947Z,4.70
2023-03-18T03:53:47.964Z,5.10
2023-03-18T03:56:15.660Z,4.78
2023-03-18T03:58:42.669Z,5.10
2023-03-18T04:01:09.584Z,5.20
2023-03-18T04:03:36.387Z,4.78
2023-03-18T04:06:03.329Z,4.68
2023-03-18T04:08:30.325Z,5.57
2023-03-18T04:10:57.857Z,5.63
2023-03-18T04:13:24.910Z,5.22
2023-03-18T04:15:53.054Z,5.28
2023-03-18T04:18:19.947Z,6.03
2023-03-18T04:20:46.796Z,5.50
2023-03-18T04:23:16.635Z,5.68
2023-03-18T04:25:45.903Z,5.45
2023-03-18T04:28:14.478Z,6.05
2023-03-18T04:30:43.269Z,6.15
2023-03-18T04:33:10.514Z,6.45
2023-03-18T04:35:38.106Z,6.38
2023-03-18T04:38:04.908Z,6.40
2023-03-18T04:40:32.016Z,6.22
2023-03-18T04:42:58.764Z,5.38
2023-03-18T04:45:25.733Z,5.55
2023-03-18T04:47:54.250Z,5.63
2023-03-18T04:50:21.172Z,6.40
2023-03-18T04:52:48.252Z,6.45
2023-03-18T04:55:20.669Z,6.32
2023-03-18T04:57:48.503Z,5.95
2023-03-18T05:00:17.814Z,6.35
2023-03-18T05:02:45.416Z,6.32
2023-03-18T05:05:12.217Z,6.43
2023-03-18T05:07:39.022Z,5.82
2023-03-18T05:10:09.540Z,6.13
2023-03-18T05:12:37.752Z,6.28
2023-03-18T05:15:06.488Z,6.43
2023-03-18T05:17:35.403Z,6.00
2023-03-18T05:20:02.181Z,6.10
2023-03-18T05:22:28.839Z,6.60
2023-03-18T05:24:55.919Z,6.80
2023-03-18T05:27:23.917Z,6.20
2023-03-18T05:29:52.399Z,6.13
2023-03-18T05:32:19.587Z,7.25
2023-03-18T05:34:46.258Z,6.85
2023-03-18T05:37:15.519Z,7.13
2023-03-18T05:39:44.832Z,6.97
2023-03-18T05:42:12.607Z,7.10
2023-03-18T05:44:40.413Z,7.28
2023-03-18T05:47:07.499Z,7.65
2023-03-18T05:49:34.740Z,7.85
2023-03-18T05:52:04.196Z,7.20
2023-03-18T05:54:31.342Z,6.60
2023-03-18T05:56:58.608Z,8.05
2023-03-18T05:59:25.924Z,6.85
2023-03-18T06:01:55.125Z,7.68
2023-03-18T06:04:22.505Z,7.10
2023-03-18T06:06:49.918Z,7.00
2023-03-18T06:09:17.546Z,7.35
2023-03-18T06:12:34.457Z,7.38
2023-03-18T06:15:01.518Z,6.65
2023-03-18T06:17:28.666Z,7.25
2023-03-18T06:19:57.063Z,7.50
2023-03-18T06:22:23.701Z,6.88
2023-03-18T06:24:51.037Z,7.05
2023-03-18T06:27:17.583Z,7.47
2023-03-18T06:29:44.482Z,7.63
2023-03-18T06:32:11.070Z,7.40
2023-03-18T06:34:37.886Z,7.57
2023-03-18T06:37:04.908Z,6.93
2023-03-18T06:39:31.467Z,7.65
2023-03-18T06:41:58.228Z,7.93
2023-03-18T06:44:25.229Z,8.00
2023-03-18T06:46:51.766Z,7.90
2023-03-18T06:49:18.320Z,7.28
2023-03-18T06:51:44.915Z,7.43
2023-03-18T06:54:11.813Z,8.18
2023-03-18T06:56:40.002Z,7.78
2023-03-18T06:59:07.956Z,7.55
2023-03-18T07:01:34.882Z,7.55
2023-03-18T07:04:02.859Z,8.57
2023-03-18T07:06:30.527Z,7.82
2023-03-18T07:08:58.656Z,8.13
2023-03-18T07:11:25.473Z,7.93
2023-03-18T07:13:53.092Z,8.70
2023-03-18T07:16:19.922Z,8.98
2023-03-18T07:18:46.663Z,9.35
2023-03-18T07:21:13.672Z,9.70
2023-03-18T07:23:40.966Z,10.13
2023-03-18T07:26:08.917Z,10.38
2023-03-18T07:28:35.678Z,10.07
2023-03-18T07:31:02.462Z,9.90
2023-03-18T07:33:29.126Z,9.63
2023-03-18T07:35:56.691Z,10.32
2023-03-18T07:38:23.585Z,9.90
2023-03-18T07:40:50.156Z,10.27
2023-03-18T07:43:17.326Z,9.95
2023-03-18T07:45:44.096Z,9.00
2023-03-18T07:48:10.684Z,9.63
2023-03-18T07:50:37.323Z,9.73
2023-03-18T07:53:04.597Z,10.27
2023-03-18T07:55:31.557Z,9.77
2023-03-18T07:57:58.477Z,9.52
2023-03-18T08:00:26.014Z,8.95
2023-03-18T08:02:52.833Z,9.00
2023-03-18T08:05:19.856Z,9.27
2023-03-18T08:07:46.444Z,9.13
2023-03-18T08:10:14.811Z,9.27
2023-03-18T08:12:52.702Z,9.55
2023-03-18T08:15:21.906Z,41.10
2023-03-18T08:17:48.557Z,10.52
2023-03-18T08:20:15.519Z,9.45
2023-03-18T08:22:42.295Z,10.10
2023-03-18T08:25:09.770Z,9.43
2023-03-18T08:27:36.381Z,9.73
2023-03-18T08:30:04.097Z,9.05
2023-03-18T08:32:31.157Z,9.82
2023-03-18T08:34:57.893Z,9.75
2023-03-18T08:37:24.640Z,9.10
2023-03-18T08:39:51.216Z,8.65
2023-03-18T08:42:19.026Z,9.65
2023-03-18T08:45:11.004Z,9.00
2023-03-18T08:47:37.989Z,9.73
2023-03-18T08:50:05.904Z,9.07
2023-03-18T08:52:32.932Z,10.00
2023-03-18T08:54:59.711Z,8.65
2023-03-18T08:57:27.842Z,9.65
2023-03-18T08:59:54.441Z,8.77
2023-03-18T09:02:21.554Z,10.73
2023-03-18T09:04:48.305Z,8.73
2023-03-18T09:07:16.384Z,9.57
2023-03-18T09:09:44.639Z,9.15
2023-03-18T09:12:12.431Z,8.18
2023-03-18T09:14:40.380Z,8.00
2023-03-18T09:17:07.170Z,8.00
2023-03-18T09:19:33.860Z,7.95
2023-03-18T09:22:00.549Z,7.57
2023-03-18T09:24:27.149Z,7.30
2023-03-18T09:26:53.709Z,7.38
2023-03-18T09:29:20.576Z,7.45
2023-03-18T09:31:47.210Z,6.93
2023-03-18T09:34:14.399Z,6.40
2023-03-18T09:36:42.083Z,6.00
2023-03-18T09:39:09.932Z,5.40
2023-03-18T09:41:46.908Z,5.55
2023-03-18T09:44:26.343Z,6.10
2023-03-18T09:47:18.603Z,5.60
2023-03-18T09:50:21.169Z,5.32
2023-03-18T09:52:58.358Z,5.65
2023-03-18T09:55:46.550Z,5.78
2023-03-18T09:58:29.503Z,5.88
2023-03-18T10:01:00.895Z,6.30
2023-03-18T10:03:31.332Z,13.50
2023-03-18T10:06:16.651Z,9.10
2023-03-18T10:09:02.028Z,11.85
2023-03-18T10:11:34.181Z,11.50
2023-03-18T10:14:36.276Z,10.60
2023-03-18T10:17:27.018Z,12.18
2023-03-18T10:19:59.725Z,10.65
2023-03-18T10:22:49.649Z,11.02
2023-03-18T10:25:27.151Z,11.52
2023-03-18T10:28:25.891Z,11.00
2023-03-18T10:31:23.541Z,11.98
2023-03-18T10:34:04.020Z,12.68
2023-03-18T10:39:19.518Z,12.63
2023-03-18T10:41:54.231Z,12.52
2023-03-18T10:44:32.719Z,12.23
2023-03-18T10:49:38.864Z,13.68
2023-03-18T10:52:15.780Z,13.00
2023-03-18T10:54:52.510Z,13.50
2023-03-18T10:57:21.898Z,14.20
2023-03-18T10:59:51.334Z,12.32
2023-03-18T11:02:30.580Z,14.55
2023-03-18T11:05:04.513Z,14.30
2023-03-18T11:08:00.029Z,13.88
2023-03-18T11:10:31.197Z,14.52
2023-03-18T11:13:00.292Z,13.07
2023-03-18T11:15:27.072Z,12.70
2023-03-18T11:17:58.936Z,12.05
2023-03-18T11:20:44.016Z,12.10
2023-03-18T11:24:17.648Z,11.65
2023-03-18T11:26:49.232Z,11.65
2023-03-18T11:29:30.178Z,12.57
2023-03-18T11:31:58.533Z,12.25
2023-03-18T11:34:30.596Z,13.63
2023-03-18T11:37:08.196Z,14.10
2023-03-18T11:39:38.008Z,14.65
2023-03-18T11:42:19.102Z,13.60
2023-03-18T11:44:46.669Z,13.30
2023-03-18T11:47:31.232Z,13.90
2023-03-18T11:49:58.792Z,15.50
2023-03-18T11:52:46.732Z,14.32
2023-03-18T11:55:38.934Z,16.60
2023-03-18T11:58:32.888Z,16.85
2023-03-18T12:01:06.611Z,17.42
2023-03-18T12:03:47.542Z,18.23
2023-03-18T12:06:23.632Z,16.75
2023-03-18T12:09:07.149Z,15.73
2023-03-18T12:12:01.060Z,15.25
2023-03-18T12:14:46.624Z,14.85
2023-03-18T12:17:22.309Z,13.95
2023-03-18T12:20:22.487Z,14.85
2023-03-18T12:23:01.529Z,14.07
2023-03-18T12:25:32.959Z,14.57
2023-03-18T12:28:11.812Z,13.95
2023-03-18T12:31:09.510Z,13.00
2023-03-18T12:33:51.965Z,13.27
2023-03-18T12:36:47.155Z,12.43
2023-03-18T12:39:34.364Z,13.13
2023-03-18T12:42:17.698Z,13.20
2023-03-18T12:45:02.204Z,12.68
2023-03-18T12:47:37.141Z,12.50
2023-03-18T12:50:27.043Z,12.18
2023-03-18T12:53:04.123Z,12.60
2023-03-18T12:55:35.682Z,13.63
2023-03-18T12:58:18.041Z,13.07
2023-03-18T13:00:54.711Z,12.52
2023-03-18T13:03:42.462Z,13.50
2023-03-18T13:06:37.624Z,13.18
2023-03-18T13:09:40.459Z,12.90
2023-03-18T13:12:19.232Z,11.60
2023-03-18T13:14:59.620Z,12.20
2023-03-18T13:17:34.026Z,10.95
2023-03-18T13:20:03.801Z,10.82
2023-03-18T13:22:37.010Z,9.70
2023-03-18T13:25:37.015Z,9.55
2023-03-18T13:28:18.297Z,9.85
2023-03-18T13:31:16.745Z,9.88
2023-03-18T13:34:17.851Z,10.13
2023-03-18T13:37:10.033Z,8.88
2023-03-18T13:39:43.502Z,7.57
2023-03-18T13:42:16.912Z,6.80
2023-03-18T13:44:55.995Z,8.05
2023-03-18T13:47:24.584Z,7.40
2023-03-18T13:50:05.547Z,6.50
2023-03-18T13:52:44.022Z,6.35
2023-03-18T13:55:39.787Z,6.45
2023-03-18T13:58:17.598Z,7.22
2023-03-18T14:00:46.347Z,7.25
2023-03-18T14:03:19.403Z,6.93
2023-03-18T14:05:48.084Z,7.18
2023-03-18T14:08:54.072Z,6.80
2023-03-18T14:11:23.980Z,6.93
2023-03-18T14:13:51.781Z,6.25
2023-03-18T14:16:24.507Z,6.35
2023-03-18T14:19:19.228Z,6.75
2023-03-18T14:21:55.013Z,5.60
2023-03-18T14:24:26.192Z,6.45
2023-03-18T14:26:58.845Z,5.45
2023-03-18T14:29:46.911Z,4.50
2023-03-18T14:32:22.994Z,4.82
2023-03-18T14:35:00.817Z,5.25
2023-03-18T14:37:31.379Z,6.50
2023-03-18T14:40:17.151Z,5.20
2023-03-18T14:42:59.524Z,5.50
2023-03-18T14:45:36.025Z,5.38
2023-03-18T14:48:20.563Z,5.18
2023-03-18T14:50:52.123Z,5.10
2023-03-18T14:53:35.207Z,4.95
2023-03-18T14:56:03.838Z,4.30
2023-03-18T14:58:33.199Z,4.18
2023-03-18T15:01:10.998Z,4.25
2023-03-18T15:03:43.945Z,4.55
2023-03-18T15:06:25.556Z,4.55
2023-03-18T15:09:06.055Z,4.35
2023-03-18T15:11:44.259Z,4.07
2023-03-18T15:14:25.994Z,3.92
2023-03-18T15:16:57.170Z,4.18
2023-03-18T15:19:24.843Z,3.83
2023-03-18T15:22:15.586Z,3.50
2023-03-18T15:24:59.552Z,3.97
2023-03-18T15:27:30.703Z,4.07
2023-03-18T15:29:59.884Z,5.82
2023-03-18T15:32:29.544Z,4.82
2023-03-18T15:35:03.291Z,3.70
2023-03-18T15:37:34.564Z,3.92
2023-03-18T15:40:29.673Z,3.42
2023-03-18T15:43:18.195Z,3.15
2023-03-18T15:45:47.563Z,2.95
2023-03-18T15:48:35.716Z,3.10
2023-03-18T15:51:05.850Z,3.63
2023-03-18T15:54:16.175Z,3.00
2023-03-18T15:56:49.109Z,3.60
2023-03-18T15:59:24.474Z,3.25
2023-03-18T16:01:52.670Z,3.03
2023-03-18T16:04:20.041Z,3.33
2023-03-18T16:06:46.840Z,3.42
2023-03-18T16:09:24.662Z,3.38
2023-03-18T16:11:56.148Z,4.53
2023-03-18T16:14:33.213Z,5.32
2023-03-18T16:16:59.960Z,5.78
2023-03-18T16:19:29.297Z,5.80
2023-03-18T16:21:58.430Z,4.97
2023-03-18T16:24:25.930Z,5.90
2023-03-18T16:26:54.092Z,5.70
2023-03-18T16:29:32.692Z,5.43
2023-03-18T16:32:00.839Z,5.70
2023-03-18T16:34:27.941Z,5.70
2023-03-18T16:36:55.301Z,5.63
2023-03-18T16:39:35.032Z,6.13
2023-03-18T16:42:04.282Z,6.43
2023-03-18T16:44:38.151Z,6.85
2023-03-18T16:47:05.366Z,6.75
2023-03-18T16:49:34.260Z,7.00
2023-03-18T16:52:03.866Z,7.55
2023-03-18T16:54:33.753Z,8.93
2023-03-18T16:57:04.385Z,8.10
2023-03-18T16:59:36.754Z,7.28
2023-03-18T17:02:04.282Z,7.35
2023-03-18T17:04:35.418Z,7.55
2023-03-18T17:07:30.591Z,7.35
2023-03-18T17:09:57.531Z,8.40
2023-03-18T17:12:55.770Z,8.98
2023-03-18T17:15:48.736Z,8.60
2023-03-18T17:18:17.884Z,9.27
2023-03-18T17:21:17.104Z,11.70
2023-03-18T17:23:44.571Z,9.55
2023-03-18T17:26:16.228Z,9.43
2023-03-18T17:28:46.030Z,10.13
2023-03-18T17:31:13.144Z,10.35
2023-03-18T17:33:40.431Z,10.98
2023-03-18T17:36:07.814Z,9.73
2023-03-18T17:38:35.203Z,10.70
2023-03-18T17:41:11.722Z,13.18
2023-03-18T17:43:38.469Z,12.60
2023-03-18T17:46:06.296Z,13.27
2023-03-18T17:48:47.053Z,13.55
2023-03-18T17:51:19.749Z,12.63
2023-03-18T17:53:49.442Z,11.88
2023-03-18T17:56:34.992Z,13.07
2023-03-18T17:59:04.659Z,13.07
2023-03-18T18:01:32.844Z,13.13
2023-03-18T18:04:00.441Z,14.23
2023-03-18T18:06:29.370Z,13.82
2023-03-18T18:09:09.994Z,15.13
2023-03-18T18:14:24.822Z,15.23
2023-03-18T18:16:54.143Z,18.00
2023-03-18T18:19:20.770Z,17.02
2023-03-18T18:21:48.307Z,15.65
2023-03-18T18:24:23.304Z,15.40
2023-03-18T18:26:50.268Z,17.15
2023-03-18T18:29:20.452Z,16.75
2023-03-18T18:31:51.743Z,17.00
2023-03-18T18:34:19.984Z,14.50
2023-03-18T18:36:47.746Z,14.77
2023-03-18T18:39:15.215Z,14.32
2023-03-18T18:41:41.763Z,13.35
2023-03-18T18:44:15.248Z,12.50
2023-03-18T18:46:41.989Z,13.60
2023-03-18T18:49:22.104Z,14.05
2023-03-18T18:51:54.799Z,13.02
2023-03-18T18:54:22.893Z,13.35
2023-03-18T18:56:49.706Z,14.18
2023-03-18T18:59:26.631Z,16.33
2023-03-18T19:01:54.217Z,16.02
2023-03-18T19:04:22.082Z,15.48
2023-03-18T19:06:50.784Z,14.52
2023-03-18T19:09:20.593Z,15.10
2023-03-18T19:11:48.416Z,15.23
2023-03-18T19:14:27.081Z,14.02
2023-03-18T19:16:56.339Z,13.73
2023-03-18T19:19:32.182Z,14.50
2023-03-18T19:21:58.843Z,18.27
2023-03-18T19:24:36.668Z,16.35
2023-03-18T19:27:05.820Z,14.30
2023-03-18T19:29:33.012Z,14.18
2023-03-18T19:32:01.299Z,15.13
2023-03-18T19:34:29.885Z,14.85
2023-03-18T19:36:57.231Z,13.43
2023-03-18T19:39:24.746Z,15.25
2023-03-18T19:41:51.768Z,14.52
2023-03-18T19:44:26.379Z,15.25
2023-03-18T19:46:58.495Z,14.93
2023-03-18T19:49:28.277Z,15.23
2023-03-18T19:51:56.047Z,15.88
2023-03-18T19:54:28.882Z,14.40
2023-03-18T19:56:57.340Z,15.65
2023-03-18T19:59:33.452Z,15.18
2023-03-18T20:02:11.218Z,15.43
2023-03-18T20:04:38.074Z,15.90
2023-03-18T20:07:06.336Z,15.27
2023-03-18T20:09:32.865Z,15.80
2023-03-18T20:12:04.772Z,16.85
2023-03-18T20:14:38.031Z,16.33
2023-03-18T20:17:23.411Z,16.25
2023-03-18T20:19:50.326Z,16.40
2023-03-18T20:22:22.954Z,15.85
2023-03-18T20:24:49.839Z,15.57
2023-03-18T20:27:17.313Z,15.35
2023-03-18T20:29:45.235Z,15.65
2023-03-18T20:32:12.058Z,14.85
2023-03-18T20:34:40.819Z,15.32
2023-03-18T20:37:21.777Z,14.65
2023-03-18T20:39:49.716Z,15.52
2023-03-18T20:42:20.929Z,14.93
2023-03-18T20:44:47.528Z,15.23
2023-03-18T20:47:14.610Z,14.43
2023-03-18T20:49:44.507Z,13.98
2023-03-18T20:52:29.309Z,13.45
2023-03-18T20:54:57.015Z,13.82
2023-03-18T20:57:24.281Z,14.15
2023-03-18T20:59:54.649Z,13.57
2023-03-18T21:02:31.277Z,11.77
2023-03-18T21:04:59.203Z,11.20
2023-03-18T21:07:26.642Z,10.65
2023-03-18T21:09:53.559Z,10.75
2023-03-18T21:12:21.957Z,9.20
2023-03-18T21:14:49.389Z,9.77
2023-03-18T21:17:27.323Z,10.07
2023-03-18T21:20:11.148Z,9.60
2023-03-18T21:22:46.706Z,11.30
2023-03-18T21:25:22.317Z,10.43
2023-03-18T21:27:49.873Z,11.23
2023-03-18T21:30:18.922Z,10.77
2023-03-18T21:32:46.729Z,11.43
2023-03-18T21:35:23.759Z,11.57
2023-03-18T21:37:51.666Z,11.82
2023-03-18T21:40:21.523Z,12.13
2023-03-18T21:42:50.544Z,12.38
2023-03-18T21:45:20.310Z,11.80
2023-03-18T21:47:47.200Z,11.32
2023-03-18T21:50:22.247Z,11.48
2023-03-18T21:52:49.248Z,11.38
2023-03-18T21:55:17.165Z,9.95
2023-03-18T21:57:46.280Z,9.63
2023-03-18T22:00:20.104Z,10.60
2023-03-18T22:02:47.655Z,10.32
2023-03-18T22:05:23.419Z,9.82
2023-03-18T22:07:51.389Z,9.40
2023-03-18T22:10:21.119Z,9.90
2023-03-18T22:12:48.585Z,9.80
2023-03-18T22:15:24.194Z,10.57
2023-03-18T22:17:51.678Z,9.88
2023-03-18T22:20:18.591Z,9.50
2023-03-18T22:22:45.197Z,9.25
2023-03-18T22:25:36.880Z,9.02
2023-03-18T22:28:04.371Z,8.85
2023-03-18T22:30:32.278Z,9.57
2023-03-18T22:33:01.144Z,8.68
2023-03-18T22:35:29.758Z,8.30
2023-03-18T22:37:56.511Z,7.72
2023-03-18T22:40:28.920Z,8.02
2023-03-18T22:43:00.851Z,7.55
2023-03-18T22:45:30.445Z,7.80
2023-03-18T22:47:59.305Z,7.35
2023-03-18T22:50:29.325Z,7.50
2023-03-18T22:53:03.605Z,7.47
2023-03-18T22:55:35.699Z,8.13
2023-03-18T22:58:02.673Z,7.68
2023-03-18T23:00:41.282Z,8.10
2023-03-18T23:03:23.271Z,8.15
2023-03-18T23:05:52.267Z,8.23
2023-03-18T23:08:21.862Z,7.75
2023-03-18T23:10:50.426Z,7.80
2023-03-18T23:13:42.649Z,7.57
2023-03-18T23:16:15.614Z,7.45
2023-03-18T23:18:42.707Z,8.02
2023-03-18T23:21:24.788Z,8.05
2023-03-18T23:23:52.411Z,8.77
2023-03-18T23:26:19.947Z,8.18
2023-03-18T23:28:46.878Z,8.43
2023-03-18T23:31:14.684Z,8.88
2023-03-18T23:33:42.985Z,8.45
2023-03-18T23:36:09.737Z,9.05
2023-03-18T23:38:37.995Z,8.55
2023-03-18T23:41:05.980Z,9.55
2023-03-18T23:43:32.541Z,10.13
2023-03-18T23:45:59.762Z,10.25
2023-03-18T23:48:26.487Z,10.10
2023-03-18T23:50:53.558Z,10.02
2023-03-18T23:53:20.729Z,9.75
2023-03-18T23:55:49.159Z,10.45
2023-03-18T23:58:16.109Z,10.27
